sensor_id;sensor_type;location;lat;lon;timestamp;P1;durP1;ratioP1;P2;durP2;ratioP2
80247;SDS011;69560;52.206;21.018;2024-03-23T00:55:58;27.00;;;19.40;;
80247;SDS011;69560;52.206;21.018;2024-03-23T00:58:24;30.70;;;21.20;;
80247;SDS011;69560;52.206;21.018;2024-03-23T01:00:51;24.60;;;18.40;;
80247;SDS011;69560;52.206;21.018;2024-03-23T01:03:17;27.20;;;19.70;;
80247;SDS011;69560;52.206;21.018;2024-03-23T01:05:44;28.00;;;19.40;;
80247;SDS011;69560;52.206;21.018;2024-03-23T01:08:10;26.30;;;19.30;;
80247;SDS011;69560;52.206;21.018;2024-03-23T01:10:36;26.40;;;18.90;;
80247;SDS011;69560;52.206;21.018;2024-03-23T01:13:03;31.10;;;20.50;;
80247;SDS011;69560;52.206;21.018;2024-03-23T01:15:29;29.40;;;20.10;;
80247;SDS011;69560;52.206;21.018;2024-03-23T01:17:56;28.90;;;19.80;;
80247;SDS011;69560;52.206;21.018;2024-03-23T01:20:22;28.20;;;18.70;;
80247;SDS011;69560;52.206;21.018;2024-03-23T01:22:49;26.90;;;18.50;;
80247;SDS011;69560;52.206;21.018;2024-03-23T01:25:15;28.20;;;20.00;;
80247;SDS011;69560;52.206;21.018;2024-03-23T01:27:42;28.30;;;18.00;;
80247;SDS011;69560;52.206;21.018;2024-03-23T01:30:08;30.30;;;20.80;;
80247;SDS011;69560;52.206;21.018;2024-03-23T01:32:35;29.70;;;20.20;;
80247;SDS011;69560;52.206;21.018;2024-03-23T01:35:01;28.70;;;19.90;;
80247;SDS011;69560;52.206;21.018;2024-03-23T01:37:28;27.50;;;18.70;;
80247;SDS011;69560;52.206;21.018;2024-03-23T01:39:54;33.50;;;21.80;;
80247;SDS011;69560;52.206;21.018;2024-03-23T01:42:21;29.10;;;20.20;;
80247;SDS011;69560;52.206;21.018;2024-03-23T01:44:47;30.20;;;20.60;;
80247;SDS011;69560;52.206;21.018;2024-03-23T01:47:14;28.80;;;20.10;;
80247;SDS011;69560;52.206;21.018;2024-03-23T01:49:41;27.50;;;20.10;;
80247;SDS011;69560;52.206;21.018;2024-03-23T01:52:07;27.00;;;19.80;;
80247;SDS011;69560;52.206;21.018;2024-03-23T01:54:34;29.80;;;21.70;;
80247;SDS011;69560;52.206;21.018;2024-03-23T01:57:02;30.60;;;22.20;;
80247;SDS011;69560;52.206;21.018;2024-03-23T01:59:28;28.80;;;21.00;;
80247;SDS011;69560;52.206;21.018;2024-03-23T02:01:55;30.30;;;20.60;;
80247;SDS011;69560;52.206;21.018;2024-03-23T02:04:21;31.60;;;21.20;;
80247;SDS011;69560;52.206;21.018;2024-03-23T02:06:48;33.30;;;21.90;;
80247;SDS011;69560;52.206;21.018;2024-03-23T02:09:14;23.00;;;17.30;;
80247;SDS011;69560;52.206;21.018;2024-03-23T02:11:41;30.50;;;22.00;;
80247;SDS011;69560;52.206;21.018;2024-03-23T02:14:08;29.30;;;21.00;;
80247;SDS011;69560;52.206;21.018;2024-03-23T02:16:34;29.80;;;21.50;;
80247;SDS011;69560;52.206;21.018;2024-03-23T02:19:01;28.30;;;21.00;;
80247;SDS011;69560;52.206;21.018;2024-03-23T02:21:27;31.40;;;21.70;;
80247;SDS011;69560;52.206;21.018;2024-03-23T02:23:59;30.40;;;20.90;;
80247;SDS011;69560;52.206;21.018;2024-03-23T02:26:26;31.30;;;21.40;;
80247;SDS011;69560;52.206;21.018;2024-03-23T02:28:52;29.10;;;21.50;;
80247;SDS011;69560;52.206;21.018;2024-03-23T02:31:19;31.50;;;22.60;;
80247;SDS011;69560;52.206;21.018;2024-03-23T02:33:49;31.90;;;22.50;;
80247;SDS011;69560;52.206;21.018;2024-03-23T02:36:15;26.90;;;19.60;;
80247;SDS011;69560;52.206;21.018;2024-03-23T02:38:42;30.10;;;21.60;;
80247;SDS011;69560;52.206;21.018;2024-03-23T02:41:08;29.10;;;20.90;;
80247;SDS011;69560;52.206;21.018;2024-03-23T02:43:35;30.30;;;22.30;;
80247;SDS011;69560;52.206;21.018;2024-03-23T02:46:01;28.50;;;20.60;;
80247;SDS011;69560;52.206;21.018;2024-03-23T02:48:29;26.50;;;19.60;;
80247;SDS011;69560;52.206;21.018;2024-03-23T02:50:55;25.40;;;19.00;;
80247;SDS011;69560;52.206;21.018;2024-03-23T02:53:22;29.90;;;21.00;;
80247;SDS011;69560;52.206;21.018;2024-03-23T02:55:48;31.20;;;22.20;;
80247;SDS011;69560;52.206;21.018;2024-03-23T02:58:15;29.00;;;21.30;;
80247;SDS011;69560;52.206;21.018;2024-03-23T03:00:41;28.60;;;21.70;;
80247;SDS011;69560;52.206;21.018;2024-03-23T03:03:07;31.10;;;23.00;;
80247;SDS011;69560;52.206;21.018;2024-03-23T03:05:35;28.00;;;21.80;;
80247;SDS011;69560;52.206;21.018;2024-03-23T03:08:01;29.30;;;21.30;;
80247;SDS011;69560;52.206;21.018;2024-03-23T03:10:28;26.80;;;20.50;;
80247;SDS011;69560;52.206;21.018;2024-03-23T03:12:55;28.50;;;20.90;;
80247;SDS011;69560;52.206;21.018;2024-03-23T03:15:21;28.40;;;21.10;;
80247;SDS011;69560;52.206;21.018;2024-03-23T03:17:48;25.70;;;19.00;;
80247;SDS011;69560;52.206;21.018;2024-03-23T03:20:15;29.30;;;20.70;;
80247;SDS011;69560;52.206;21.018;2024-03-23T03:22:43;27.10;;;19.90;;
80247;SDS011;69560;52.206;21.018;2024-03-23T03:25:10;28.00;;;21.30;;
80247;SDS011;69560;52.206;21.018;2024-03-23T03:27:37;28.30;;;20.60;;
80247;SDS011;69560;52.206;21.018;2024-03-23T03:30:03;27.90;;;19.60;;
80247;SDS011;69560;52.206;21.018;2024-03-23T03:32:32;28.40;;;20.40;;
80247;SDS011;69560;52.206;21.018;2024-03-23T03:34:59;28.80;;;21.00;;
80247;SDS011;69560;52.206;21.018;2024-03-23T03:37:25;28.40;;;21.40;;
80247;SDS011;69560;52.206;21.018;2024-03-23T03:39:52;31.50;;;21.50;;
80247;SDS011;69560;52.206;21.018;2024-03-23T03:42:18;24.10;;;17.00;;
80247;SDS011;69560;52.206;21.018;2024-03-23T03:44:45;29.50;;;20.90;;
80247;SDS011;69560;52.206;21.018;2024-03-23T03:47:11;26.50;;;19.10;;
80247;SDS011;69560;52.206;21.018;2024-03-23T03:49:38;26.20;;;19.30;;
80247;SDS011;69560;52.206;21.018;2024-03-23T03:52:04;25.60;;;18.50;;
80247;SDS011;69560;52.206;21.018;2024-03-23T03:54:30;25.80;;;19.60;;
80247;SDS011;69560;52.206;21.018;2024-03-23T03:56:57;26.90;;;20.40;;
80247;SDS011;69560;52.206;21.018;2024-03-23T03:59:23;24.30;;;19.40;;
80247;SDS011;69560;52.206;21.018;2024-03-23T04:01:50;26.10;;;19.50;;
80247;SDS011;69560;52.206;21.018;2024-03-23T04:04:16;25.30;;;19.30;;
80247;SDS011;69560;52.206;21.018;2024-03-23T04:06:43;26.60;;;18.70;;
80247;SDS011;69560;52.206;21.018;2024-03-23T04:09:10;26.10;;;17.90;;
80247;SDS011;69560;52.206;21.018;2024-03-23T04:11:36;24.60;;;18.60;;
80247;SDS011;69560;52.206;21.018;2024-03-23T04:14:03;23.70;;;18.80;;
80247;SDS011;69560;52.206;21.018;2024-03-23T04:16:31;22.40;;;16.50;;
80247;SDS011;69560;52.206;21.018;2024-03-23T04:19:01;24.80;;;18.70;;
80247;SDS011;69560;52.206;21.018;2024-03-23T04:21:27;22.90;;;18.20;;
80247;SDS011;69560;52.206;21.018;2024-03-23T04:23:54;25.10;;;18.20;;
80247;SDS011;69560;52.206;21.018;2024-03-23T04:26:20;22.20;;;17.80;;
80247;SDS011;69560;52.206;21.018;2024-03-23T04:28:47;23.60;;;17.40;;
80247;SDS011;69560;52.206;21.018;2024-03-23T04:31:13;23.00;;;18.10;;
80247;SDS011;69560;52.206;21.018;2024-03-23T04:33:40;21.80;;;17.40;;
80247;SDS011;69560;52.206;21.018;2024-03-23T04:36:07;23.30;;;18.30;;
80247;SDS011;69560;52.206;21.018;2024-03-23T04:38:34;23.00;;;18.70;;
80247;SDS011;69560;52.206;21.018;2024-03-23T04:41:00;23.10;;;18.50;;
80247;SDS011;69560;52.206;21.018;2024-03-23T04:43:28;24.60;;;18.90;;
80247;SDS011;69560;52.206;21.018;2024-03-23T04:45:54;26.90;;;18.60;;
80247;SDS011;69560;52.206;21.018;2024-03-23T04:48:21;24.50;;;18.60;;
80247;SDS011;69560;52.206;21.018;2024-03-23T04:50:49;24.90;;;18.60;;
80247;SDS011;69560;52.206;21.018;2024-03-23T04:53:16;23.30;;;18.10;;
80247;SDS011;69560;52.206;21.018;2024-03-23T04:55:43;23.90;;;19.00;;
80247;SDS011;69560;52.206;21.018;2024-03-23T04:58:10;29.80;;;19.50;;
80247;SDS011;69560;52.206;21.018;2024-03-23T05:00:36;24.50;;;19.60;;
80247;SDS011;69560;52.206;21.018;2024-03-23T05:03:03;23.90;;;19.20;;
80247;SDS011;69560;52.206;21.018;2024-03-23T05:05:30;22.30;;;17.80;;
80247;SDS011;69560;52.206;21.018;2024-03-23T05:07:57;25.20;;;19.80;;
80247;SDS011;69560;52.206;21.018;2024-03-23T05:10:23;23.70;;;19.00;;
80247;SDS011;69560;52.206;21.018;2024-03-23T05:12:50;27.80;;;21.40;;
80247;SDS011;69560;52.206;21.018;2024-03-23T05:15:16;30.90;;;22.90;;
80247;SDS011;69560;52.206;21.018;2024-03-23T05:17:42;27.60;;;20.90;;
80247;SDS011;69560;52.206;21.018;2024-03-23T05:20:09;26.20;;;21.40;;
80247;SDS011;69560;52.206;21.018;2024-03-23T05:22:36;29.50;;;20.70;;
80247;SDS011;69560;52.206;21.018;2024-03-23T05:25:03;30.00;;;22.90;;
80247;SDS011;69560;52.206;21.018;2024-03-23T05:27:33;27.40;;;21.60;;
80247;SDS011;69560;52.206;21.018;2024-03-23T05:30:00;28.90;;;21.70;;
80247;SDS011;69560;52.206;21.018;2024-03-23T05:32:26;30.40;;;23.00;;
80247;SDS011;69560;52.206;21.018;2024-03-23T05:34:53;31.00;;;23.60;;
80247;SDS011;69560;52.206;21.018;2024-03-23T05:37:22;32.30;;;23.50;;
80247;SDS011;69560;52.206;21.018;2024-03-23T05:39:49;31.60;;;23.00;;
80247;SDS011;69560;52.206;21.018;2024-03-23T05:42:16;31.90;;;23.30;;
80247;SDS011;69560;52.206;21.018;2024-03-23T05:44:47;30.70;;;22.80;;
80247;SDS011;69560;52.206;21.018;2024-03-23T05:47:13;34.20;;;23.70;;
80247;SDS011;69560;52.206;21.018;2024-03-23T05:49:43;31.90;;;23.60;;
80247;SDS011;69560;52.206;21.018;2024-03-23T05:52:13;30.80;;;21.80;;
80247;SDS011;69560;52.206;21.018;2024-03-23T05:54:39;32.60;;;24.10;;
80247;SDS011;69560;52.206;21.018;2024-03-23T05:57:06;33.70;;;23.00;;
80247;SDS011;69560;52.206;21.018;2024-03-23T05:59:35;28.10;;;19.90;;
80247;SDS011;69560;52.206;21.018;2024-03-23T06:02:02;32.60;;;23.10;;
80247;SDS011;69560;52.206;21.018;2024-03-23T06:04:30;31.00;;;23.10;;
80247;SDS011;69560;52.206;21.018;2024-03-23T06:06:56;36.20;;;24.50;;
80247;SDS011;69560;52.206;21.018;2024-03-23T06:09:24;32.80;;;24.30;;
80247;SDS011;69560;52.206;21.018;2024-03-23T06:11:50;32.60;;;24.20;;
80247;SDS011;69560;52.206;21.018;2024-03-23T06:14:17;29.90;;;21.90;;
80247;SDS011;69560;52.206;21.018;2024-03-23T06:16:43;30.10;;;23.10;;
80247;SDS011;69560;52.206;21.018;2024-03-23T06:19:10;31.20;;;22.00;;
80247;SDS011;69560;52.206;21.018;2024-03-23T06:21:36;35.80;;;24.00;;
80247;SDS011;69560;52.206;21.018;2024-03-23T06:24:03;31.80;;;23.40;;
80247;SDS011;69560;52.206;21.018;2024-03-23T06:26:30;34.60;;;24.20;;
80247;SDS011;69560;52.206;21.018;2024-03-23T06:28:56;31.90;;;23.10;;
80247;SDS011;69560;52.206;21.018;2024-03-23T06:31:23;28.10;;;21.80;;
80247;SDS011;69560;52.206;21.018;2024-03-23T06:33:49;30.50;;;22.90;;
80247;SDS011;69560;52.206;21.018;2024-03-23T06:36:16;25.10;;;18.60;;
80247;SDS011;69560;52.206;21.018;2024-03-23T06:38:42;30.90;;;22.80;;
80247;SDS011;69560;52.206;21.018;2024-03-23T06:41:09;30.40;;;22.90;;
80247;SDS011;69560;52.206;21.018;2024-03-23T06:43:35;29.70;;;22.40;;
80247;SDS011;69560;52.206;21.018;2024-03-23T06:46:02;31.90;;;23.30;;
80247;SDS011;69560;52.206;21.018;2024-03-23T06:48:32;32.00;;;22.30;;
80247;SDS011;69560;52.206;21.018;2024-03-23T06:50:59;28.90;;;21.00;;
80247;SDS011;69560;52.206;21.018;2024-03-23T06:53:26;29.70;;;21.20;;
80247;SDS011;69560;52.206;21.018;2024-03-23T06:55:53;31.60;;;22.10;;
80247;SDS011;69560;52.206;21.018;2024-03-23T06:58:20;31.70;;;21.80;;
80247;SDS011;69560;52.206;21.018;2024-03-23T07:00:48;28.80;;;22.10;;
80247;SDS011;69560;52.206;21.018;2024-03-23T07:03:16;29.70;;;22.20;;
80247;SDS011;69560;52.206;21.018;2024-03-23T07:05:43;30.50;;;21.40;;
80247;SDS011;69560;52.206;21.018;2024-03-23T07:08:12;28.80;;;19.60;;
80247;SDS011;69560;52.206;21.018;2024-03-23T07:10:41;30.80;;;20.30;;
80247;SDS011;69560;52.206;21.018;2024-03-23T07:13:08;27.20;;;18.90;;
80247;SDS011;69560;52.206;21.018;2024-03-23T07:15:34;28.20;;;21.00;;
80247;SDS011;69560;52.206;21.018;2024-03-23T07:18:01;29.10;;;21.40;;
80247;SDS011;69560;52.206;21.018;2024-03-23T07:20:28;29.10;;;21.60;;
80247;SDS011;69560;52.206;21.018;2024-03-23T07:22:57;29.80;;;21.40;;
80247;SDS011;69560;52.206;21.018;2024-03-23T07:25:25;27.40;;;21.30;;
80247;SDS011;69560;52.206;21.018;2024-03-23T07:27:53;26.10;;;19.10;;
80247;SDS011;69560;52.206;21.018;2024-03-23T07:30:21;27.70;;;20.50;;
80247;SDS011;69560;52.206;21.018;2024-03-23T07:32:49;24.30;;;19.60;;
80247;SDS011;69560;52.206;21.018;2024-03-23T07:35:17;28.20;;;20.90;;
80247;SDS011;69560;52.206;21.018;2024-03-23T07:37:44;27.10;;;19.40;;
80247;SDS011;69560;52.206;21.018;2024-03-23T07:40:12;25.00;;;19.40;;
80247;SDS011;69560;52.206;21.018;2024-03-23T07:42:39;25.30;;;19.50;;
80247;SDS011;69560;52.206;21.018;2024-03-23T07:45:07;26.80;;;18.80;;
80247;SDS011;69560;52.206;21.018;2024-03-23T07:47:35;26.00;;;18.90;;
80247;SDS011;69560;52.206;21.018;2024-03-23T07:50:02;27.10;;;20.80;;
80247;SDS011;69560;52.206;21.018;2024-03-23T07:52:28;27.10;;;20.60;;
80247;SDS011;69560;52.206;21.018;2024-03-23T07:54:55;25.30;;;19.90;;
80247;SDS011;69560;52.206;21.018;2024-03-23T07:57:22;26.60;;;18.90;;
80247;SDS011;69560;52.206;21.018;2024-03-23T07:59:48;25.80;;;18.50;;
80247;SDS011;69560;52.206;21.018;2024-03-23T08:02:15;26.30;;;20.10;;
80247;SDS011;69560;52.206;21.018;2024-03-23T08:04:41;26.00;;;19.40;;
80247;SDS011;69560;52.206;21.018;2024-03-23T08:07:07;27.20;;;20.10;;
80247;SDS011;69560;52.206;21.018;2024-03-23T08:09:34;27.70;;;20.80;;
80247;SDS011;69560;52.206;21.018;2024-03-23T08:12:00;26.10;;;19.10;;
80247;SDS011;69560;52.206;21.018;2024-03-23T08:14:28;28.70;;;19.80;;
80247;SDS011;69560;52.206;21.018;2024-03-23T08:16:55;28.30;;;21.20;;
80247;SDS011;69560;52.206;21.018;2024-03-23T08:19:21;32.70;;;23.10;;
80247;SDS011;69560;52.206;21.018;2024-03-23T08:21:48;30.40;;;21.50;;
80247;SDS011;69560;52.206;21.018;2024-03-23T08:24:15;27.00;;;19.70;;
80247;SDS011;69560;52.206;21.018;2024-03-23T08:26:42;29.90;;;20.80;;
80247;SDS011;69560;52.206;21.018;2024-03-23T08:29:08;28.00;;;20.40;;
80247;SDS011;69560;52.206;21.018;2024-03-23T08:31:34;27.90;;;19.80;;
80247;SDS011;69560;52.206;21.018;2024-03-23T08:34:01;27.00;;;19.90;;
80247;SDS011;69560;52.206;21.018;2024-03-23T08:36:27;24.50;;;19.20;;
80247;SDS011;69560;52.206;21.018;2024-03-23T08:38:55;31.30;;;20.70;;
80247;SDS011;69560;52.206;21.018;2024-03-23T08:41:21;28.00;;;20.30;;
80247;SDS011;69560;52.206;21.018;2024-03-23T08:43:48;30.10;;;21.20;;
80247;SDS011;69560;52.206;21.018;2024-03-23T08:46:15;27.50;;;18.60;;
80247;SDS011;69560;52.206;21.018;2024-03-23T08:48:45;26.20;;;18.40;;
80247;SDS011;69560;52.206;21.018;2024-03-23T08:51:15;27.80;;;19.40;;
80247;SDS011;69560;52.206;21.018;2024-03-23T08:53:43;30.50;;;21.60;;
80247;SDS011;69560;52.206;21.018;2024-03-23T08:56:10;27.00;;;19.10;;
80247;SDS011;69560;52.206;21.018;2024-03-23T08:58:38;25.90;;;18.40;;
80247;SDS011;69560;52.206;21.018;2024-03-23T09:03:34;25.30;;;17.80;;
80247;SDS011;69560;52.206;21.018;2024-03-23T09:06:11;23.40;;;16.80;;
80247;SDS011;69560;52.206;21.018;2024-03-23T09:08:39;24.50;;;18.40;;
80247;SDS011;69560;52.206;21.018;2024-03-23T09:11:07;22.50;;;16.90;;
80247;SDS011;69560;52.206;21.018;2024-03-23T09:13:35;24.80;;;15.90;;
80247;SDS011;69560;52.206;21.018;2024-03-23T09:16:03;22.90;;;17.20;;
80247;SDS011;69560;52.206;21.018;2024-03-23T09:18:32;24.80;;;18.10;;
80247;SDS011;69560;52.206;21.018;2024-03-23T09:20:59;24.50;;;16.60;;
80247;SDS011;69560;52.206;21.018;2024-03-23T09:23:26;24.30;;;16.90;;
80247;SDS011;69560;52.206;21.018;2024-03-23T09:25:52;21.30;;;14.40;;
80247;SDS011;69560;52.206;21.018;2024-03-23T09:28:19;20.30;;;15.40;;
80247;SDS011;69560;52.206;21.018;2024-03-23T09:30:46;22.50;;;15.90;;
80247;SDS011;69560;52.206;21.018;2024-03-23T09:33:12;21.30;;;15.30;;
80247;SDS011;69560;52.206;21.018;2024-03-23T09:35:40;18.60;;;15.30;;
80247;SDS011;69560;52.206;21.018;2024-03-23T09:38:08;20.00;;;14.90;;
80247;SDS011;69560;52.206;21.018;2024-03-23T09:40:40;19.00;;;15.00;;
80247;SDS011;69560;52.206;21.018;2024-03-23T09:43:08;18.60;;;14.40;;
80247;SDS011;69560;52.206;21.018;2024-03-23T09:45:36;19.00;;;16.10;;
80247;SDS011;69560;52.206;21.018;2024-03-23T09:48:05;17.60;;;14.50;;
80247;SDS011;69560;52.206;21.018;2024-03-23T09:50:36;22.10;;;14.70;;
80247;SDS011;69560;52.206;21.018;2024-03-23T09:53:06;18.50;;;14.40;;
80247;SDS011;69560;52.206;21.018;2024-03-23T09:55:34;18.80;;;15.10;;
80247;SDS011;69560;52.206;21.018;2024-03-23T09:58:04;20.90;;;14.90;;
80247;SDS011;69560;52.206;21.018;2024-03-23T10:00:35;17.80;;;13.50;;
80247;SDS011;69560;52.206;21.018;2024-03-23T10:03:01;18.50;;;14.20;;
80247;SDS011;69560;52.206;21.018;2024-03-23T10:05:29;14.60;;;11.70;;
80247;SDS011;69560;52.206;21.018;2024-03-23T10:07:57;19.30;;;14.60;;
80247;SDS011;69560;52.206;21.018;2024-03-23T10:10:27;18.20;;;14.00;;
80247;SDS011;69560;52.206;21.018;2024-03-23T10:12:53;21.10;;;14.70;;
80247;SDS011;69560;52.206;21.018;2024-03-23T10:15:20;19.50;;;14.90;;
80247;SDS011;69560;52.206;21.018;2024-03-23T10:17:49;16.30;;;13.70;;
80247;SDS011;69560;52.206;21.018;2024-03-23T10:20:22;15.90;;;13.10;;
80247;SDS011;69560;52.206;21.018;2024-03-23T10:22:50;15.70;;;12.60;;
80247;SDS011;69560;52.206;21.018;2024-03-23T10:25:22;14.00;;;11.90;;
80247;SDS011;69560;52.206;21.018;2024-03-23T10:27:58;15.50;;;12.80;;
80247;SDS011;69560;52.206;21.018;2024-03-23T10:30:26;14.70;;;11.20;;
80247;SDS011;69560;52.206;21.018;2024-03-23T10:33:10;13.90;;;11.60;;
80247;SDS011;69560;52.206;21.018;2024-03-23T10:35:38;15.00;;;11.30;;
80247;SDS011;69560;52.206;21.018;2024-03-23T10:38:05;12.10;;;10.80;;
80247;SDS011;69560;52.206;21.018;2024-03-23T10:40:35;13.40;;;10.50;;
80247;SDS011;69560;52.206;21.018;2024-03-23T10:43:03;11.10;;;8.40;;
80247;SDS011;69560;52.206;21.018;2024-03-23T10:45:30;8.90;;;8.10;;
80247;SDS011;69560;52.206;21.018;2024-03-23T10:47:57;10.70;;;9.70;;
80247;SDS011;69560;52.206;21.018;2024-03-23T10:50:24;10.10;;;8.80;;
80247;SDS011;69560;52.206;21.018;2024-03-23T10:52:50;9.30;;;8.40;;
80247;SDS011;69560;52.206;21.018;2024-03-23T10:55:19;8.30;;;6.60;;
80247;SDS011;69560;52.206;21.018;2024-03-23T11:00:20;8.90;;;8.00;;
80247;SDS011;69560;52.206;21.018;2024-03-23T11:02:49;9.90;;;8.30;;
80247;SDS011;69560;52.206;21.018;2024-03-23T11:07:52;8.60;;;7.70;;
80247;SDS011;69560;52.206;21.018;2024-03-23T11:10:29;8.50;;;7.70;;
80247;SDS011;69560;52.206;21.018;2024-03-23T11:12:57;7.60;;;6.80;;
80247;SDS011;69560;52.206;21.018;2024-03-23T11:15:24;8.00;;;7.30;;
80247;SDS011;69560;52.206;21.018;2024-03-23T11:18:09;7.10;;;6.40;;
80247;SDS011;69560;52.206;21.018;2024-03-23T11:20:35;6.50;;;5.90;;
80247;SDS011;69560;52.206;21.018;2024-03-23T11:23:02;7.60;;;6.80;;
80247;SDS011;69560;52.206;21.018;2024-03-23T11:25:29;8.40;;;7.50;;
80247;SDS011;69560;52.206;21.018;2024-03-23T11:27:56;7.60;;;6.70;;
80247;SDS011;69560;52.206;21.018;2024-03-23T11:30:25;7.90;;;7.10;;
80247;SDS011;69560;52.206;21.018;2024-03-23T11:32:55;8.40;;;7.50;;
80247;SDS011;69560;52.206;21.018;2024-03-23T11:38:21;8.80;;;7.10;;
80247;SDS011;69560;52.206;21.018;2024-03-23T11:40:48;8.90;;;7.10;;
80247;SDS011;69560;52.206;21.018;2024-03-23T11:43:19;8.60;;;7.50;;
80247;SDS011;69560;52.206;21.018;2024-03-23T11:45:48;7.00;;;6.30;;
80247;SDS011;69560;52.206;21.018;2024-03-23T11:48:19;7.30;;;6.60;;
80247;SDS011;69560;52.206;21.018;2024-03-23T11:50:49;8.30;;;7.20;;
80247;SDS011;69560;52.206;21.018;2024-03-23T11:53:17;8.50;;;7.00;;
80247;SDS011;69560;52.206;21.018;2024-03-23T11:55:48;8.10;;;7.30;;
80247;SDS011;69560;52.206;21.018;2024-03-23T11:58:19;8.70;;;7.90;;
80247;SDS011;69560;52.206;21.018;2024-03-23T12:00:57;6.80;;;6.00;;
80247;SDS011;69560;52.206;21.018;2024-03-23T12:03:31;11.30;;;6.80;;
80247;SDS011;69560;52.206;21.018;2024-03-23T12:06:01;9.80;;;7.20;;
80247;SDS011;69560;52.206;21.018;2024-03-23T12:08:32;8.40;;;7.30;;
80247;SDS011;69560;52.206;21.018;2024-03-23T12:11:12;6.70;;;5.20;;
80247;SDS011;69560;52.206;21.018;2024-03-23T12:13:42;9.30;;;6.30;;
80247;SDS011;69560;52.206;21.018;2024-03-23T12:18:49;6.90;;;6.20;;
80247;SDS011;69560;52.206;21.018;2024-03-23T12:21:17;10.30;;;8.20;;
80247;SDS011;69560;52.206;21.018;2024-03-23T12:23:44;8.60;;;7.40;;
80247;SDS011;69560;52.206;21.018;2024-03-23T12:26:13;9.20;;;7.40;;
80247;SDS011;69560;52.206;21.018;2024-03-23T12:28:39;8.00;;;7.20;;
80247;SDS011;69560;52.206;21.018;2024-03-23T12:31:06;11.50;;;7.50;;
80247;SDS011;69560;52.206;21.018;2024-03-23T12:33:32;9.80;;;7.40;;
80247;SDS011;69560;52.206;21.018;2024-03-23T12:35:59;9.70;;;8.40;;
80247;SDS011;69560;52.206;21.018;2024-03-23T12:38:25;8.10;;;7.20;;
80247;SDS011;69560;52.206;21.018;2024-03-23T12:40:52;9.40;;;7.40;;
80247;SDS011;69560;52.206;21.018;2024-03-23T12:43:18;10.40;;;7.00;;
80247;SDS011;69560;52.206;21.018;2024-03-23T12:45:48;10.20;;;8.40;;
80247;SDS011;69560;52.206;21.018;2024-03-23T12:48:15;10.80;;;8.70;;
80247;SDS011;69560;52.206;21.018;2024-03-23T12:50:42;10.10;;;8.00;;
80247;SDS011;69560;52.206;21.018;2024-03-23T12:53:09;11.10;;;8.30;;
80247;SDS011;69560;52.206;21.018;2024-03-23T12:55:35;9.30;;;8.20;;
80247;SDS011;69560;52.206;21.018;2024-03-23T12:58:02;10.90;;;8.80;;
80247;SDS011;69560;52.206;21.018;2024-03-23T13:00:29;10.10;;;8.20;;
80247;SDS011;69560;52.206;21.018;2024-03-23T13:02:55;11.10;;;8.80;;
80247;SDS011;69560;52.206;21.018;2024-03-23T13:05:22;10.20;;;8.30;;
80247;SDS011;69560;52.206;21.018;2024-03-23T13:07:48;11.80;;;9.70;;
80247;SDS011;69560;52.206;21.018;2024-03-23T13:10:14;11.20;;;8.80;;
80247;SDS011;69560;52.206;21.018;2024-03-23T13:12:42;10.40;;;8.70;;
80247;SDS011;69560;52.206;21.018;2024-03-23T13:15:09;18.50;;;9.10;;
80247;SDS011;69560;52.206;21.018;2024-03-23T13:17:35;11.30;;;8.90;;
80247;SDS011;69560;52.206;21.018;2024-03-23T13:20:02;12.50;;;9.00;;
80247;SDS011;69560;52.206;21.018;2024-03-23T13:22:30;12.00;;;8.70;;
80247;SDS011;69560;52.206;21.018;2024-03-23T13:24:56;12.70;;;8.50;;
80247;SDS011;69560;52.206;21.018;2024-03-23T13:27:23;12.10;;;8.80;;
80247;SDS011;69560;52.206;21.018;2024-03-23T13:29:49;10.90;;;8.40;;
80247;SDS011;69560;52.206;21.018;2024-03-23T13:32:16;12.00;;;8.30;;
80247;SDS011;69560;52.206;21.018;2024-03-23T13:34:43;9.90;;;8.30;;
80247;SDS011;69560;52.206;21.018;2024-03-23T13:37:09;10.70;;;7.90;;
80247;SDS011;69560;52.206;21.018;2024-03-23T13:39:36;11.00;;;8.00;;
80247;SDS011;69560;52.206;21.018;2024-03-23T13:42:02;7.90;;;6.80;;
80247;SDS011;69560;52.206;21.018;2024-03-23T13:44:31;10.60;;;8.10;;
80247;SDS011;69560;52.206;21.018;2024-03-23T13:46:57;10.20;;;8.00;;
80247;SDS011;69560;52.206;21.018;2024-03-23T13:49:27;11.70;;;9.10;;
80247;SDS011;69560;52.206;21.018;2024-03-23T13:51:58;10.10;;;8.10;;
80247;SDS011;69560;52.206;21.018;2024-03-23T13:54:25;13.60;;;8.80;;
80247;SDS011;69560;52.206;21.018;2024-03-23T13:56:53;9.80;;;8.50;;
80247;SDS011;69560;52.206;21.018;2024-03-23T13:59:22;12.00;;;8.00;;
80247;SDS011;69560;52.206;21.018;2024-03-23T14:01:51;14.20;;;8.50;;
80247;SDS011;69560;52.206;21.018;2024-03-23T14:04:18;9.20;;;7.90;;
80247;SDS011;69560;52.206;21.018;2024-03-23T14:06:47;10.30;;;8.20;;
80247;SDS011;69560;52.206;21.018;2024-03-23T14:09:14;9.10;;;7.40;;
80247;SDS011;69560;52.206;21.018;2024-03-23T14:11:47;12.40;;;8.70;;
80247;SDS011;69560;52.206;21.018;2024-03-23T14:14:13;12.80;;;8.20;;
80247;SDS011;69560;52.206;21.018;2024-03-23T14:16:43;10.60;;;8.40;;
80247;SDS011;69560;52.206;21.018;2024-03-23T14:19:10;11.90;;;8.40;;
80247;SDS011;69560;52.206;21.018;2024-03-23T14:21:36;9.60;;;8.10;;
80247;SDS011;69560;52.206;21.018;2024-03-23T14:24:03;11.40;;;9.10;;
80247;SDS011;69560;52.206;21.018;2024-03-23T14:26:30;12.30;;;9.30;;
80247;SDS011;69560;52.206;21.018;2024-03-23T14:28:56;10.80;;;8.90;;
80247;SDS011;69560;52.206;21.018;2024-03-23T14:31:23;10.80;;;8.40;;
80247;SDS011;69560;52.206;21.018;2024-03-23T14:33:51;13.30;;;9.30;;
80247;SDS011;69560;52.206;21.018;2024-03-23T14:36:17;14.10;;;8.70;;
80247;SDS011;69560;52.206;21.018;2024-03-23T14:38:47;13.00;;;9.40;;
80247;SDS011;69560;52.206;21.018;2024-03-23T14:43:41;11.80;;;9.10;;
80247;SDS011;69560;52.206;21.018;2024-03-23T14:46:10;14.70;;;9.50;;
80247;SDS011;69560;52.206;21.018;2024-03-23T14:48:42;14.20;;;9.00;;
80247;SDS011;69560;52.206;21.018;2024-03-23T14:51:10;16.10;;;9.70;;
80247;SDS011;69560;52.206;21.018;2024-03-23T14:53:38;14.10;;;9.80;;
80247;SDS011;69560;52.206;21.018;2024-03-23T14:56:11;12.10;;;10.00;;
80247;SDS011;69560;52.206;21.018;2024-03-23T14:58:41;14.40;;;11.30;;
80247;SDS011;69560;52.206;21.018;2024-03-23T15:01:08;12.80;;;10.60;;
80247;SDS011;69560;52.206;21.018;2024-03-23T15:03:36;15.30;;;11.50;;
80247;SDS011;69560;52.206;21.018;2024-03-23T15:06:05;13.60;;;10.50;;
80247;SDS011;69560;52.206;21.018;2024-03-23T15:08:32;17.10;;;12.30;;
80247;SDS011;69560;52.206;21.018;2024-03-23T15:10:59;15.10;;;11.90;;
80247;SDS011;69560;52.206;21.018;2024-03-23T15:13:26;17.90;;;13.30;;
80247;SDS011;69560;52.206;21.018;2024-03-23T15:15:53;14.10;;;12.00;;
80247;SDS011;69560;52.206;21.018;2024-03-23T15:18:19;14.20;;;12.30;;
80247;SDS011;69560;52.206;21.018;2024-03-23T15:21:01;14.20;;;11.90;;
80247;SDS011;69560;52.206;21.018;2024-03-23T15:23:29;16.80;;;10.90;;
80247;SDS011;69560;52.206;21.018;2024-03-23T15:25:56;13.30;;;11.80;;